sensor_id;sensor_type;location;lat;lon;timestamp;pressure;altitude;pressure_sealevel;temperature;humidity
69842;BME280;57138;51.326;-0.068;2023-02-19T00:00:03;100405.81;;;8.01;90.81
69842;BME280;57138;51.326;-0.068;2023-02-19T00:02:32;100411.81;;;7.95;90.70
69842;BME280;57138;51.326;-0.068;2023-02-19T00:05:02;100421.47;;;7.96;90.70
69842;BME280;57138;51.326;-0.068;2023-02-19T00:07:28;100422.78;;;7.91;90.76
69842;BME280;57138;51.326;-0.068;2023-02-19T00:09:53;100423.81;;;7.90;91.19
69842;BME280;57138;51.326;-0.068;2023-02-19T00:12:19;100421.81;;;7.84;91.03
69842;BME280;57138;51.326;-0.068;2023-02-19T00:14:44;100420.66;;;7.87;90.72
69842;BME280;57138;51.326;-0.068;2023-02-19T00:17:12;100430.13;;;7.89;90.57
69842;BME280;57138;51.326;-0.068;2023-02-19T00:19:38;100437.78;;;7.92;91.02
69842;BME280;57138;51.326;-0.068;2023-02-19T00:22:03;100438.75;;;7.91;91.45
69842;BME280;57138;51.326;-0.068;2023-02-19T00:24:29;100433.59;;;7.82;91.24
69842;BME280;57138;51.326;-0.068;2023-02-19T00:26:54;100436.94;;;7.84;91.26
69842;BME280;57138;51.326;-0.068;2023-02-19T00:29:20;100430.13;;;7.73;91.63
69842;BME280;57138;51.326;-0.068;2023-02-19T00:31:46;100450.44;;;7.82;91.18
69842;BME280;57138;51.326;-0.068;2023-02-19T00:34:15;100448.41;;;7.84;91.05
69842;BME280;57138;51.326;-0.068;2023-02-19T00:36:41;100455.75;;;7.82;91.30
69842;BME280;57138;51.326;-0.068;2023-02-19T00:39:15;100455.22;;;7.79;91.74
69842;BME280;57138;51.326;-0.068;2023-02-19T00:41:45;100456.09;;;7.79;91.55
69842;BME280;57138;51.326;-0.068;2023-02-19T00:44:12;100458.75;;;7.79;92.07
69842;BME280;57138;51.326;-0.068;2023-02-19T00:46:45;100462.38;;;7.86;92.11
69842;BME280;57138;51.326;-0.068;2023-02-19T00:49:17;100467.38;;;7.89;91.85
69842;BME280;57138;51.326;-0.068;2023-02-19T00:51:43;100475.22;;;7.91;91.65
69842;BME280;57138;51.326;-0.068;2023-02-19T00:54:09;100469.06;;;7.90;91.85
69842;BME280;57138;51.326;-0.068;2023-02-19T00:56:35;100462.38;;;7.86;92.26
69842;BME280;57138;51.326;-0.068;2023-02-19T00:59:01;100477.03;;;7.99;92.40
69842;BME280;57138;51.326;-0.068;2023-02-19T01:01:27;100474.22;;;8.00;92.52
69842;BME280;57138;51.326;-0.068;2023-02-19T01:03:52;100465.06;;;7.95;91.96
69842;BME280;57138;51.326;-0.068;2023-02-19T01:06:18;100471.38;;;8.02;91.72
69842;BME280;57138;51.326;-0.068;2023-02-19T01:08:48;100472.06;;;8.04;92.35
69842;BME280;57138;51.326;-0.068;2023-02-19T01:11:15;100462.75;;;8.00;92.33
69842;BME280;57138;51.326;-0.068;2023-02-19T01:13:41;100471.06;;;8.05;92.14
69842;BME280;57138;51.326;-0.068;2023-02-19T01:16:17;100495.72;;;8.15;91.57
69842;BME280;57138;51.326;-0.068;2023-02-19T01:18:44;100494.38;;;8.11;91.31
69842;BME280;57138;51.326;-0.068;2023-02-19T01:21:16;100479.72;;;7.99;91.67
69842;BME280;57138;51.326;-0.068;2023-02-19T01:23:42;100504.00;;;8.04;91.59
69842;BME280;57138;51.326;-0.068;2023-02-19T01:26:12;100503.69;;;7.99;91.32
69842;BME280;57138;51.326;-0.068;2023-02-19T01:28:38;100497.84;;;7.95;91.52
69842;BME280;57138;51.326;-0.068;2023-02-19T01:31:09;100507.97;;;7.91;90.90
69842;BME280;57138;51.326;-0.068;2023-02-19T01:33:36;100481.34;;;7.75;91.10
69842;BME280;57138;51.326;-0.068;2023-02-19T01:36:03;100499.00;;;7.84;91.40
69842;BME280;57138;51.326;-0.068;2023-02-19T01:38:28;100504.16;;;7.78;90.73
69842;BME280;57138;51.326;-0.068;2023-02-19T01:41:00;100498.31;;;7.74;91.43
69842;BME280;57138;51.326;-0.068;2023-02-19T01:43:26;100497.97;;;7.69;91.09
69842;BME280;57138;51.326;-0.068;2023-02-19T01:45:54;100501.63;;;7.68;90.98
69842;BME280;57138;51.326;-0.068;2023-02-19T01:48:24;100493.63;;;7.60;90.98
69842;BME280;57138;51.326;-0.068;2023-02-19T01:53:23;100502.59;;;7.59;91.20
69842;BME280;57138;51.326;-0.068;2023-02-19T01:55:53;100512.56;;;7.56;91.04
69842;BME280;57138;51.326;-0.068;2023-02-19T01:58:21;100504.91;;;7.53;91.34
69842;BME280;57138;51.326;-0.068;2023-02-19T02:00:49;100513.72;;;7.54;91.67
69842;BME280;57138;51.326;-0.068;2023-02-19T02:03:16;100521.84;;;7.52;91.52
69842;BME280;57138;51.326;-0.068;2023-02-19T02:05:52;100503.06;;;7.46;91.55
69842;BME280;57138;51.326;-0.068;2023-02-19T02:08:20;100513.69;;;7.46;91.47
69842;BME280;57138;51.326;-0.068;2023-02-19T02:11:04;100499.03;;;7.42;91.30
69842;BME280;57138;51.326;-0.068;2023-02-19T02:13:32;100500.19;;;7.31;91.22
69842;BME280;57138;51.326;-0.068;2023-02-19T02:21:25;100513.84;;;7.36;91.70
69842;BME280;57138;51.326;-0.068;2023-02-19T02:27:05;100518.13;;;7.29;92.38
69842;BME280;57138;51.326;-0.068;2023-02-19T02:32:28;100529.72;;;7.19;92.12
69842;BME280;57138;51.326;-0.068;2023-02-19T02:35:11;100524.38;;;7.19;92.25
69842;BME280;57138;51.326;-0.068;2023-02-19T02:37:39;100502.75;;;7.06;91.25
69842;BME280;57138;51.326;-0.068;2023-02-19T02:40:07;100504.53;;;7.06;91.25
69842;BME280;57138;51.326;-0.068;2023-02-19T02:42:37;100519.34;;;7.08;91.61
69842;BME280;57138;51.326;-0.068;2023-02-19T02:48:03;100529.63;;;7.03;91.40
69842;BME280;57138;51.326;-0.068;2023-02-19T02:50:41;100527.13;;;7.01;92.12
69842;BME280;57138;51.326;-0.068;2023-02-19T02:53:12;100535.94;;;7.02;91.88
69842;BME280;57138;51.326;-0.068;2023-02-19T02:55:58;100532.78;;;6.98;92.04
69842;BME280;57138;51.326;-0.068;2023-02-19T02:58:26;100535.94;;;7.02;91.65
69842;BME280;57138;51.326;-0.068;2023-02-19T03:01:08;100537.94;;;7.00;92.14
69842;BME280;57138;51.326;-0.068;2023-02-19T03:03:59;100546.22;;;6.97;91.69
69842;BME280;57138;51.326;-0.068;2023-02-19T03:06:29;100552.66;;;6.94;91.76
69842;BME280;57138;51.326;-0.068;2023-02-19T03:09:00;100556.84;;;6.97;91.91
69842;BME280;57138;51.326;-0.068;2023-02-19T03:11:27;100558.81;;;6.95;92.15
69842;BME280;57138;51.326;-0.068;2023-02-19T03:14:17;100558.00;;;6.94;91.74
69842;BME280;57138;51.326;-0.068;2023-02-19T03:17:12;100551.00;;;6.93;91.76
69842;BME280;57138;51.326;-0.068;2023-02-19T03:20:00;100558.31;;;6.91;91.90
69842;BME280;57138;51.326;-0.068;2023-02-19T03:22:33;100561.13;;;6.90;92.00
69842;BME280;57138;51.326;-0.068;2023-02-19T03:25:05;100557.78;;;6.88;91.50
69842;BME280;57138;51.326;-0.068;2023-02-19T03:27:51;100570.06;;;6.89;91.97
69842;BME280;57138;51.326;-0.068;2023-02-19T03:30:20;100573.75;;;6.88;92.04
69842;BME280;57138;51.326;-0.068;2023-02-19T03:32:52;100581.25;;;6.92;92.01
69842;BME280;57138;51.326;-0.068;2023-02-19T03:35:26;100573.13;;;6.94;92.43
69842;BME280;57138;51.326;-0.068;2023-02-19T03:40:20;100566.47;;;6.98;91.93
69842;BME280;57138;51.326;-0.068;2023-02-19T03:42:57;100577.81;;;7.00;91.65
69842;BME280;57138;51.326;-0.068;2023-02-19T03:45:48;100582.81;;;7.03;91.83
69842;BME280;57138;51.326;-0.068;2023-02-19T03:48:33;100586.13;;;7.05;91.84
69842;BME280;57138;51.326;-0.068;2023-02-19T03:54:33;100586.81;;;7.07;91.07
69842;BME280;57138;51.326;-0.068;2023-02-19T03:57:32;100598.59;;;7.05;90.50
69842;BME280;57138;51.326;-0.068;2023-02-19T03:59:58;100599.28;;;7.07;90.59
69842;BME280;57138;51.326;-0.068;2023-02-19T04:02:32;100595.09;;;7.04;90.60
69842;BME280;57138;51.326;-0.068;2023-02-19T04:05:06;100587.44;;;7.01;90.33
69842;BME280;57138;51.326;-0.068;2023-02-19T04:07:36;100589.06;;;6.94;90.49
69842;BME280;57138;51.326;-0.068;2023-02-19T04:10:06;100601.03;;;6.98;90.45
69842;BME280;57138;51.326;-0.068;2023-02-19T04:12:36;100601.66;;;6.92;90.15
69842;BME280;57138;51.326;-0.068;2023-02-19T04:15:09;100617.91;;;6.89;90.07
69842;BME280;57138;51.326;-0.068;2023-02-19T04:17:48;100622.88;;;6.83;90.51
69842;BME280;57138;51.326;-0.068;2023-02-19T04:20:15;100622.19;;;6.81;89.98
69842;BME280;57138;51.326;-0.068;2023-02-19T04:22:42;100621.84;;;6.76;90.40
69842;BME280;57138;51.326;-0.068;2023-02-19T04:25:08;100618.09;;;6.69;90.19
69842;BME280;57138;51.326;-0.068;2023-02-19T04:27:38;100630.41;;;6.70;90.31
69842;BME280;57138;51.326;-0.068;2023-02-19T04:30:09;100623.72;;;6.66;90.92
69842;BME280;57138;51.326;-0.068;2023-02-19T04:32:35;100622.91;;;6.65;90.64
69842;BME280;57138;51.326;-0.068;2023-02-19T04:35:00;100631.84;;;6.64;91.52
69842;BME280;57138;51.326;-0.068;2023-02-19T04:37:26;100648.63;;;6.65;91.50
69842;BME280;57138;51.326;-0.068;2023-02-19T04:39:51;100658.13;;;6.68;91.60
69842;BME280;57138;51.326;-0.068;2023-02-19T04:42:16;100657.28;;;6.67;91.25
69842;BME280;57138;51.326;-0.068;2023-02-19T04:44:42;100666.63;;;6.71;91.24
69842;BME280;57138;51.326;-0.068;2023-02-19T04:47:07;100663.97;;;6.71;91.14
69842;BME280;57138;51.326;-0.068;2023-02-19T04:49:33;100654.19;;;6.72;91.30
69842;BME280;57138;51.326;-0.068;2023-02-19T04:51:58;100663.97;;;6.71;91.51
69842;BME280;57138;51.326;-0.068;2023-02-19T04:54:23;100660.78;;;6.68;91.59
69842;BME280;57138;51.326;-0.068;2023-02-19T04:56:49;100673.47;;;6.74;91.31
69842;BME280;57138;51.326;-0.068;2023-02-19T04:59:15;100674.59;;;6.71;91.72
69842;BME280;57138;51.326;-0.068;2023-02-19T05:01:41;100666.16;;;6.76;91.61
69842;BME280;57138;51.326;-0.068;2023-02-19T05:04:06;100671.31;;;6.77;91.44
69842;BME280;57138;51.326;-0.068;2023-02-19T05:06:31;100672.63;;;6.73;91.80
69842;BME280;57138;51.326;-0.068;2023-02-19T05:08:57;100687.97;;;6.79;91.55
69842;BME280;57138;51.326;-0.068;2023-02-19T05:11:22;100693.28;;;6.79;91.34
69842;BME280;57138;51.326;-0.068;2023-02-19T05:13:48;100700.25;;;6.80;91.00
69842;BME280;57138;51.326;-0.068;2023-02-19T05:16:14;100703.63;;;6.82;91.02
69842;BME280;57138;51.326;-0.068;2023-02-19T05:18:42;100697.28;;;6.83;90.72
69842;BME280;57138;51.326;-0.068;2023-02-19T05:21:08;100697.28;;;6.83;90.92
69842;BME280;57138;51.326;-0.068;2023-02-19T05:23:34;100693.81;;;6.83;90.42
69842;BME280;57138;51.326;-0.068;2023-02-19T05:26:15;100685.38;;;6.88;90.25
69842;BME280;57138;51.326;-0.068;2023-02-19T05:28:49;100687.34;;;6.86;90.39
69842;BME280;57138;51.326;-0.068;2023-02-19T05:31:16;100688.72;;;6.90;90.21
69842;BME280;57138;51.326;-0.068;2023-02-19T05:33:41;100695.00;;;6.89;89.57
69842;BME280;57138;51.326;-0.068;2023-02-19T05:36:10;100702.47;;;6.85;89.63
69842;BME280;57138;51.326;-0.068;2023-02-19T05:38:36;100698.81;;;6.86;89.20
69842;BME280;57138;51.326;-0.068;2023-02-19T05:43:33;100696.84;;;6.70;88.51
69842;BME280;57138;51.326;-0.068;2023-02-19T05:46:07;100698.13;;;6.66;88.69
69842;BME280;57138;51.326;-0.068;2023-02-19T05:48:35;100695.47;;;6.66;89.01
69842;BME280;57138;51.326;-0.068;2023-02-19T05:51:06;100695.78;;;6.63;88.85
69842;BME280;57138;51.326;-0.068;2023-02-19T05:53:32;100700.94;;;6.64;88.71
69842;BME280;57138;51.326;-0.068;2023-02-19T05:55:57;100706.56;;;6.61;88.86
69842;BME280;57138;51.326;-0.068;2023-02-19T05:58:23;100701.09;;;6.63;88.76
69842;BME280;57138;51.326;-0.068;2023-02-19T06:00:49;100699.72;;;6.59;88.81
69842;BME280;57138;51.326;-0.068;2023-02-19T06:03:17;100711.56;;;6.64;88.23
69842;BME280;57138;51.326;-0.068;2023-02-19T06:05:42;100703.75;;;6.63;88.40
69842;BME280;57138;51.326;-0.068;2023-02-19T06:08:09;100707.94;;;6.65;88.65
69842;BME280;57138;51.326;-0.068;2023-02-19T06:10:37;100709.72;;;6.65;88.74
69842;BME280;57138;51.326;-0.068;2023-02-19T06:13:05;100698.72;;;6.60;88.52
69842;BME280;57138;51.326;-0.068;2023-02-19T06:15:30;100705.72;;;6.61;87.75
69842;BME280;57138;51.326;-0.068;2023-02-19T06:17:56;100714.69;;;6.60;88.60
69842;BME280;57138;51.326;-0.068;2023-02-19T06:20:21;100723.09;;;6.55;87.75
69842;BME280;57138;51.326;-0.068;2023-02-19T06:22:49;100694.53;;;6.39;87.50
69842;BME280;57138;51.326;-0.068;2023-02-19T06:25:14;100715.50;;;6.42;87.92
69842;BME280;57138;51.326;-0.068;2023-02-19T06:27:39;100723.47;;;6.42;88.16
69842;BME280;57138;51.326;-0.068;2023-02-19T06:30:05;100733.38;;;6.40;88.06
69842;BME280;57138;51.326;-0.068;2023-02-19T06:32:31;100726.00;;;6.34;87.93
69842;BME280;57138;51.326;-0.068;2023-02-19T06:34:56;100741.94;;;6.34;87.84
69842;BME280;57138;51.326;-0.068;2023-02-19T06:37:22;100735.56;;;6.27;88.32
69842;BME280;57138;51.326;-0.068;2023-02-19T06:39:47;100730.31;;;6.17;87.66
69842;BME280;57138;51.326;-0.068;2023-02-19T06:42:12;100739.78;;;6.20;88.04
69842;BME280;57138;51.326;-0.068;2023-02-19T06:44:41;100731.66;;;6.21;88.14
69842;BME280;57138;51.326;-0.068;2023-02-19T06:47:06;100735.78;;;6.16;88.16
69842;BME280;57138;51.326;-0.068;2023-02-19T06:49:32;100738.72;;;6.13;88.09
69842;BME280;57138;51.326;-0.068;2023-02-19T06:51:57;100755.63;;;6.11;88.19
69842;BME280;57138;51.326;-0.068;2023-02-19T06:54:25;100755.22;;;6.06;88.34
69842;BME280;57138;51.326;-0.068;2023-02-19T06:56:51;100763.88;;;6.08;88.36
69842;BME280;57138;51.326;-0.068;2023-02-19T06:59:17;100761.66;;;6.04;88.46
69842;BME280;57138;51.326;-0.068;2023-02-19T07:01:43;100770.44;;;6.04;88.75
69842;BME280;57138;51.326;-0.068;2023-02-19T07:04:12;100767.53;;;5.98;88.38
69842;BME280;57138;51.326;-0.068;2023-02-19T07:06:38;100778.56;;;6.03;88.13
69842;BME280;57138;51.326;-0.068;2023-02-19T07:09:05;100780.38;;;6.02;87.89
69842;BME280;57138;51.326;-0.068;2023-02-19T07:11:32;100778.69;;;6.01;88.54
69842;BME280;57138;51.326;-0.068;2023-02-19T07:13:59;100771.75;;;6.00;88.86
69842;BME280;57138;51.326;-0.068;2023-02-19T07:16:26;100777.03;;;6.00;88.76
69842;BME280;57138;51.326;-0.068;2023-02-19T07:18:55;100780.66;;;5.99;88.70
69842;BME280;57138;51.326;-0.068;2023-02-19T07:21:23;100783.47;;;5.98;88.62
69842;BME280;57138;51.326;-0.068;2023-02-19T07:23:48;100791.53;;;5.96;88.84
69842;BME280;57138;51.326;-0.068;2023-02-19T07:26:16;100797.81;;;5.95;88.38
69842;BME280;57138;51.326;-0.068;2023-02-19T07:28:44;100798.81;;;5.94;88.61
69842;BME280;57138;51.326;-0.068;2023-02-19T07:31:10;100805.97;;;6.03;89.29
69842;BME280;57138;51.326;-0.068;2023-02-19T07:33:36;100816.44;;;6.05;88.64
69842;BME280;57138;51.326;-0.068;2023-02-19T07:36:02;100813.91;;;6.03;89.29
69842;BME280;57138;51.326;-0.068;2023-02-19T07:38:28;100804.97;;;6.04;88.47
69842;BME280;57138;51.326;-0.068;2023-02-19T07:40:55;100811.38;;;6.11;89.14
69842;BME280;57138;51.326;-0.068;2023-02-19T07:43:22;100806.63;;;6.05;89.10
69842;BME280;57138;51.326;-0.068;2023-02-19T07:45:49;100816.69;;;6.11;88.60
69842;BME280;57138;51.326;-0.068;2023-02-19T07:48:15;100821.31;;;6.09;89.06
69842;BME280;57138;51.326;-0.068;2023-02-19T07:50:41;100830.34;;;6.17;89.08
69842;BME280;57138;51.326;-0.068;2023-02-19T07:53:07;100843.19;;;6.21;88.83
69842;BME280;57138;51.326;-0.068;2023-02-19T07:55:33;100836.63;;;6.25;88.77
69842;BME280;57138;51.326;-0.068;2023-02-19T07:57:59;100850.44;;;6.29;88.32
69842;BME280;57138;51.326;-0.068;2023-02-19T08:00:25;100854.09;;;6.28;88.63
69842;BME280;57138;51.326;-0.068;2023-02-19T08:02:51;100859.41;;;6.28;88.46
69842;BME280;57138;51.326;-0.068;2023-02-19T08:05:29;100859.13;;;6.31;88.40
69842;BME280;57138;51.326;-0.068;2023-02-19T08:07:57;100864.44;;;6.31;88.49
69842;BME280;57138;51.326;-0.068;2023-02-19T08:10:23;100860.47;;;6.35;89.18
69842;BME280;57138;51.326;-0.068;2023-02-19T08:13:10;100837.00;;;6.30;88.89
69842;BME280;57138;51.326;-0.068;2023-02-19T08:15:48;100840.06;;;6.36;88.90
69842;BME280;57138;51.326;-0.068;2023-02-19T08:18:18;100856.56;;;6.39;89.04
69842;BME280;57138;51.326;-0.068;2023-02-19T08:20:46;100861.88;;;6.39;88.51
69842;BME280;57138;51.326;-0.068;2023-02-19T08:23:12;100857.81;;;6.35;88.07
69842;BME280;57138;51.326;-0.068;2023-02-19T08:25:41;100853.50;;;6.34;88.56
69842;BME280;57138;51.326;-0.068;2023-02-19T08:28:08;100875.56;;;6.44;88.72
69842;BME280;57138;51.326;-0.068;2023-02-19T08:30:35;100871.34;;;6.42;88.19
69842;BME280;57138;51.326;-0.068;2023-02-19T08:33:02;100884.50;;;6.43;87.70
69842;BME280;57138;51.326;-0.068;2023-02-19T08:35:28;100910.78;;;6.46;87.79
69842;BME280;57138;51.326;-0.068;2023-02-19T08:37:57;100924.91;;;6.47;88.04
69842;BME280;57138;51.326;-0.068;2023-02-19T08:40:24;100918.34;;;6.41;87.66
69842;BME280;57138;51.326;-0.068;2023-02-19T08:42:49;100913.84;;;6.42;87.90
69842;BME280;57138;51.326;-0.068;2023-02-19T08:45:15;100908.53;;;6.42;88.13
69842;BME280;57138;51.326;-0.068;2023-02-19T08:47:41;100904.09;;;6.42;87.61
69842;BME280;57138;51.326;-0.068;2023-02-19T08:50:07;100907.44;;;6.44;88.01
69842;BME280;57138;51.326;-0.068;2023-02-19T08:52:33;100916.09;;;6.46;87.69
69842;BME280;57138;51.326;-0.068;2023-02-19T08:54:59;100931.72;;;6.50;87.53
69842;BME280;57138;51.326;-0.068;2023-02-19T08:57:25;100922.66;;;6.52;87.61
69842;BME280;57138;51.326;-0.068;2023-02-19T08:59:51;100926.41;;;6.59;87.42
69842;BME280;57138;51.326;-0.068;2023-02-19T09:02:16;100904.00;;;6.62;87.66
69842;BME280;57138;51.326;-0.068;2023-02-19T09:04:41;100883.31;;;6.56;87.28
69842;BME280;57138;51.326;-0.068;2023-02-19T09:07:08;100890.44;;;6.65;87.92
69842;BME280;57138;51.326;-0.068;2023-02-19T09:09:36;100885.53;;;6.70;87.33
69842;BME280;57138;51.326;-0.068;2023-02-19T09:12:06;100884.94;;;6.76;87.32
69842;BME280;57138;51.326;-0.068;2023-02-19T09:14:36;100902.97;;;6.82;87.52
69842;BME280;57138;51.326;-0.068;2023-02-19T09:17:03;100923.16;;;6.93;87.60
69842;BME280;57138;51.326;-0.068;2023-02-19T09:19:31;100924.56;;;6.97;87.23
69842;BME280;57138;51.326;-0.068;2023-02-19T09:21:56;100919.78;;;7.01;86.86
69842;BME280;57138;51.326;-0.068;2023-02-19T09:24:22;100940.47;;;7.07;86.78
69842;BME280;57138;51.326;-0.068;2023-02-19T09:26:49;100931.22;;;7.11;87.13
69842;BME280;57138;51.326;-0.068;2023-02-19T09:29:15;100919.31;;;7.15;86.43
69842;BME280;57138;51.326;-0.068;2023-02-19T09:31:41;100933.34;;;7.26;86.45
69842;BME280;57138;51.326;-0.068;2023-02-19T09:34:07;100923.72;;;7.25;85.81
69842;BME280;57138;51.326;-0.068;2023-02-19T09:36:33;100937.63;;;7.36;85.50
69842;BME280;57138;51.326;-0.068;2023-02-19T09:38:59;100916.66;;;7.33;85.48
69842;BME280;57138;51.326;-0.068;2023-02-19T09:41:36;100915.91;;;7.41;85.32
69842;BME280;57138;51.326;-0.068;2023-02-19T09:44:04;100941.31;;;7.53;84.65
69842;BME280;57138;51.326;-0.068;2023-02-19T09:46:50;100931.25;;;7.47;84.00
69842;BME280;57138;51.326;-0.068;2023-02-19T09:49:25;100963.38;;;7.64;84.46
69842;BME280;57138;51.326;-0.068;2023-02-19T09:52:14;100969.22;;;7.67;84.15
69842;BME280;57138;51.326;-0.068;2023-02-19T09:54:44;100971.13;;;7.75;84.53
69842;BME280;57138;51.326;-0.068;2023-02-19T09:57:14;100965.81;;;7.75;83.69
69842;BME280;57138;51.326;-0.068;2023-02-19T09:59:47;100952.19;;;7.78;82.81
69842;BME280;57138;51.326;-0.068;2023-02-19T10:02:21;100983.66;;;8.01;83.51
69842;BME280;57138;51.326;-0.068;2023-02-19T10:04:49;100991.06;;;8.07;83.08
69842;BME280;57138;51.326;-0.068;2023-02-19T10:07:22;100984.38;;;8.03;83.16
69842;BME280;57138;51.326;-0.068;2023-02-19T10:10:09;100992.13;;;8.14;83.71
69842;BME280;57138;51.326;-0.068;2023-02-19T10:12:48;100973.63;;;8.13;83.28
69842;BME280;57138;51.326;-0.068;2023-02-19T10:17:54;100982.91;;;8.26;82.78
69842;BME280;57138;51.326;-0.068;2023-02-19T10:20:21;100986.94;;;8.31;82.09
69842;BME280;57138;51.326;-0.068;2023-02-19T10:23:11;100991.00;;;8.43;81.25
69842;BME280;57138;51.326;-0.068;2023-02-19T10:25:43;100974.72;;;8.46;81.55
69842;BME280;57138;51.326;-0.068;2023-02-19T10:28:13;100955.09;;;8.47;81.16
69842;BME280;57138;51.326;-0.068;2023-02-19T10:30:40;100960.44;;;8.47;77.92
69842;BME280;57138;51.326;-0.068;2023-02-19T10:35:49;100982.03;;;8.62;78.83
69842;BME280;57138;51.326;-0.068;2023-02-19T10:38:17;100994.56;;;8.70;77.44
69842;BME280;57138;51.326;-0.068;2023-02-19T10:40:47;100980.19;;;8.62;77.27
69842;BME280;57138;51.326;-0.068;2023-02-19T10:43:25;100976.88;;;8.69;75.56
69842;BME280;57138;51.326;-0.068;2023-02-19T10:46:00;100993.94;;;8.76;76.38
69842;BME280;57138;51.326;-0.068;2023-02-19T10:48:53;100995.91;;;8.74;74.08
69842;BME280;57138;51.326;-0.068;2023-02-19T10:51:26;101000.94;;;8.77;75.84
69842;BME280;57138;51.326;-0.068;2023-02-19T10:54:18;100988.22;;;8.71;75.25
69842;BME280;57138;51.326;-0.068;2023-02-19T10:56:45;100991.91;;;8.70;76.26
69842;BME280;57138;51.326;-0.068;2023-02-19T10:59:26;100988.59;;;8.76;75.21
69842;BME280;57138;51.326;-0.068;2023-02-19T11:04:19;100980.97;;;8.81;74.29
69842;BME280;57138;51.326;-0.068;2023-02-19T11:06:45;100992.38;;;8.91;74.70
69842;BME280;57138;51.326;-0.068;2023-02-19T11:09:31;100994.59;;;9.04;73.31
69842;BME280;57138;51.326;-0.068;2023-02-19T11:12:00;100979.72;;;9.02;73.62
69842;BME280;57138;51.326;-0.068;2023-02-19T11:14:29;101011.19;;;9.24;72.39
69842;BME280;57138;51.326;-0.068;2023-02-19T11:16:56;101009.38;;;9.33;72.25
69842;BME280;57138;51.326;-0.068;2023-02-19T11:21:54;100996.25;;;9.48;71.65
69842;BME280;57138;51.326;-0.068;2023-02-19T11:24:34;100997.09;;;9.48;69.44
69842;BME280;57138;51.326;-0.068;2023-02-19T11:27:06;101010.28;;;9.50;69.13
69842;BME280;57138;51.326;-0.068;2023-02-19T11:29:39;101000.56;;;9.49;68.96
69842;BME280;57138;51.326;-0.068;2023-02-19T11:32:25;101007.94;;;9.55;67.82
69842;BME280;57138;51.326;-0.068;2023-02-19T11:35:04;101003.28;;;9.57;69.41
69842;BME280;57138;51.326;-0.068;2023-02-19T11:37:54;100994.31;;;9.66;69.23
69842;BME280;57138;51.326;-0.068;2023-02-19T11:40:28;101000.00;;;9.80;68.93
69842;BME280;57138;51.326;-0.068;2023-02-19T11:49:03;101036.94;;;9.93;67.40
69842;BME280;57138;51.326;-0.068;2023-02-19T11:56:42;101011.69;;;9.87;67.96
69842;BME280;57138;51.326;-0.068;2023-02-19T11:59:34;101016.72;;;9.90;66.49
69842;BME280;57138;51.326;-0.068;2023-02-19T12:02:25;101018.25;;;9.93;65.61
69842;BME280;57138;51.326;-0.068;2023-02-19T12:05:11;101008.38;;;10.01;65.73
69842;BME280;57138;51.326;-0.068;2023-02-19T12:19:08;100978.16;;;10.25;64.26
69842;BME280;57138;51.326;-0.068;2023-02-19T12:22:05;100959.94;;;10.29;64.02
69842;BME280;57138;51.326;-0.068;2023-02-19T12:24:54;100972.66;;;10.35;64.26
69842;BME280;57138;51.326;-0.068;2023-02-19T12:43:24;100953.78;;;10.53;63.90
69842;BME280;57138;51.326;-0.068;2023-02-19T12:46:03;100959.94;;;10.62;63.57
69842;BME280;57138;51.326;-0.068;2023-02-19T12:48:47;100949.41;;;10.60;61.23
69842;BME280;57138;51.326;-0.068;2023-02-19T12:51:28;100974.94;;;10.71;62.95
69842;BME280;57138;51.326;-0.068;2023-02-19T12:54:00;100952.03;;;10.69;63.24
69842;BME280;57138;51.326;-0.068;2023-02-19T12:59:10;100973.94;;;10.81;61.16
69842;BME280;57138;51.326;-0.068;2023-02-19T13:01:52;100952.56;;;10.72;62.06
69842;BME280;57138;51.326;-0.068;2023-02-19T13:09:39;100971.56;;;10.94;62.18
69842;BME280;57138;51.326;-0.068;2023-02-19T13:12:32;100972.88;;;10.98;62.14
69842;BME280;57138;51.326;-0.068;2023-02-19T13:15:01;100971.53;;;11.02;62.63
69842;BME280;57138;51.326;-0.068;2023-02-19T13:17:36;100977.53;;;11.04;62.98
69842;BME280;57138;51.326;-0.068;2023-02-19T13:22:57;100976.53;;;11.05;62.68
69842;BME280;57138;51.326;-0.068;2023-02-19T13:31:30;100973.72;;;10.99;63.33
69842;BME280;57138;51.326;-0.068;2023-02-19T13:36:50;100951.97;;;11.02;62.70
69842;BME280;57138;51.326;-0.068;2023-02-19T13:39:20;100947.78;;;10.99;63.52
69842;BME280;57138;51.326;-0.068;2023-02-19T13:41:53;100931.06;;;10.97;62.15
69842;BME280;57138;51.326;-0.068;2023-02-19T13:44:23;100944.94;;;11.01;62.32
69842;BME280;57138;51.326;-0.068;2023-02-19T13:46:49;100948.78;;;10.98;62.95
69842;BME280;57138;51.326;-0.068;2023-02-19T13:51:49;100952.78;;;11.02;63.06
69842;BME280;57138;51.326;-0.068;2023-02-19T13:54:30;100946.44;;;11.03;63.12
69842;BME280;57138;51.326;-0.068;2023-02-19T13:59:49;100960.38;;;11.30;64.12
69842;BME280;57138;51.326;-0.068;2023-02-19T14:09:50;100943.94;;;11.33;63.61
69842;BME280;57138;51.326;-0.068;2023-02-19T14:14:45;100936.97;;;11.24;63.57
69842;BME280;57138;51.326;-0.068;2023-02-19T14:17:41;100937.66;;;11.18;64.05
69842;BME280;57138;51.326;-0.068;2023-02-19T14:28:13;100928.53;;;11.04;64.44
69842;BME280;57138;51.326;-0.068;2023-02-19T14:36:46;100904.63;;;11.02;63.96
69842;BME280;57138;51.326;-0.068;2023-02-19T14:39:18;100901.28;;;11.00;64.51
69842;BME280;57138;51.326;-0.068;2023-02-19T14:41:51;100917.47;;;11.07;63.92
69842;BME280;57138;51.326;-0.068;2023-02-19T14:44:24;100920.34;;;11.05;64.78
69842;BME280;57138;51.326;-0.068;2023-02-19T14:47:08;100902.59;;;11.04;64.98
69842;BME280;57138;51.326;-0.068;2023-02-19T14:49:47;100894.63;;;10.96;65.53
69842;BME280;57138;51.326;-0.068;2023-02-19T14:54:49;100917.78;;;11.12;65.22
69842;BME280;57138;51.326;-0.068;2023-02-19T14:57:22;100908.97;;;11.03;65.95
69842;BME280;57138;51.326;-0.068;2023-02-19T15:00:00;100903.63;;;11.03;65.54
69842;BME280;57138;51.326;-0.068;2023-02-19T15:02:28;100899.97;;;10.96;65.29
69842;BME280;57138;51.326;-0.068;2023-02-19T15:04:57;100905.78;;;11.00;65.39
69842;BME280;57138;51.326;-0.068;2023-02-19T15:07:31;100899.31;;;10.94;65.72
69842;BME280;57138;51.326;-0.068;2023-02-19T15:10:02;100895.97;;;10.92;65.56